Terminal Aerodrome Forecast
Issued by NWS

Home | Current Version | Previous Version | Text Only | Print | Product List | Glossary On
Versions: 1 2 3 4 5 6 7 8 9 10 11 12 13 14 15
057
FTUS43 KSGF 131720
TAFJLN
TAF
KJLN 131720Z 1318/1418 28016G25KT P6SM BKN250
     FM140000 32011KT P6SM SKC
     FM140200 33007KT P6SM SCT035
     FM141400 36010KT P6SM BKN035=

USA.gov is the U.S. government's official web portal to all federal, state and local government web resources and services.